Time;durP1;ratioP1;P1;durP2;ratioP2;P2;SDS_P1;SDS_P2;PMS_P1;PMS_P2;Temp;Humidity;BMP_temperature;BMP_pressure;BME280_temperature;BME280_humidity;BME280_pressure;Samples;Min_cycle;Max_cycle;Signal;HPM_P1;HPM_P2
2022/07/14 00:00:55;;;;;;;6.20;2.57;;;;;;;15.31;100.00;62441.81;5096866;28;20191;-76
2022/07/14 00:03:22;;;;;;;3.83;1.80;;;;;;;14.92;100.00;62397.25;5113869;28;20684;-74
2022/07/14 00:05:55;;;;;;;3.20;1.60;;;;;;;15.75;100.00;62486.63;5113730;28;20666;-75
2022/07/14 00:08:23;;;;;;;2.03;1.53;;;;;;;15.71;100.00;62482.31;5102800;28;20231;-75
2022/07/14 00:10:51;;;;;;;2.23;1.80;;;;;;;15.62;100.00;62469.50;5094339;28;20195;-77
2022/07/14 00:13:20;;;;;;;2.10;1.80;;;;;;;15.72;100.00;62485.41;5093168;28;20722;-75
2022/07/14 00:15:48;;;;;;;2.93;1.60;;;;;;;15.64;100.00;62477.34;5096953;28;20215;-77
2022/07/14 00:18:18;;;;;;;1.77;1.67;;;;;;;15.48;100.00;62454.44;5093334;28;20227;-77
2022/07/14 00:20:45;;;;;;;15.03;3.10;;;;;;;15.55;100.00;62462.53;5093211;28;20198;-74
2022/07/14 00:23:14;;;;;;;5.77;2.37;;;;;;;15.48;100.00;62457.53;5104729;28;20275;-78
2022/07/14 00:25:43;;;;;;;8.10;2.60;;;;;;;15.51;100.00;62460.78;5107959;28;20192;-76
2022/07/14 00:28:10;;;;;;;4.57;2.37;;;;;;;15.51;100.00;62463.34;5093265;28;20227;-76
2022/07/14 00:30:37;;;;;;;2.27;1.93;;;;;;;14.97;100.00;62405.22;5106109;28;20198;-75
2022/07/14 00:33:04;;;;;;;3.20;2.33;;;;;;;14.91;100.00;62393.63;5095058;28;20200;-75
2022/07/14 00:35:33;;;;;;;2.50;2.00;;;;;;;15.49;100.00;62455.53;5094125;28;20202;-75
2022/07/14 00:38:03;;;;;;;9.30;2.17;;;;;;;15.47;100.00;62448.78;5100034;28;20553;-75
2022/07/14 00:40:32;;;;;;;4.03;1.90;;;;;;;15.48;100.00;62454.44;5113390;28;20226;-73
2022/07/14 00:42:59;;;;;;;4.63;1.77;;;;;;;15.44;100.00;62455.81;5112730;28;20234;-75
2022/07/14 00:45:27;;;;;;;4.13;2.03;;;;;;;15.27;100.00;62434.94;5112056;28;20191;-75
2022/07/14 00:47:58;;;;;;;2.87;2.13;;;;;;;15.39;100.00;62447.84;5113396;28;20210;-75
2022/07/14 00:50:25;;;;;;;2.70;2.00;;;;;;;15.45;100.00;62451.75;5110524;28;20195;-78
2022/07/14 00:52:52;;;;;;;5.60;2.13;;;;;;;15.28;100.00;62436.00;5110302;28;20198;-76
2022/07/14 00:55:20;;;;;;;2.13;1.93;;;;;;;14.45;100.00;62344.16;5110803;28;20269;-77
2022/07/14 00:57:50;;;;;;;2.67;2.07;;;;;;;15.23;100.00;62428.06;5093890;28;20387;-75
2022/07/14 01:00:17;;;;;;;4.00;2.10;;;;;;;14.83;100.00;62390.16;5112612;28;20195;-75
2022/07/14 01:02:46;;;;;;;2.13;1.93;;;;;;;14.86;100.00;62390.81;5110871;28;20208;-75
2022/07/14 01:05:13;;;;;;;3.33;2.13;;;;;;;14.91;100.00;62394.16;5111510;28;20204;-75
2022/07/14 01:07:40;;;;;;;5.00;2.10;;;;;;;14.98;100.00;62401.69;5111039;28;20218;-74
2022/07/14 01:10:09;;;;;;;2.20;2.00;;;;;;;14.77;100.00;62381.66;5111741;28;20195;-75
2022/07/14 01:12:37;;;;;;;4.33;2.10;;;;;;;14.57;100.00;62362.19;5111713;28;20203;-75
2022/07/14 01:15:07;;;;;;;7.00;2.30;;;;;;;14.90;100.00;62392.53;5110769;28;20219;-74
2022/07/14 01:17:34;;;;;;;4.30;2.30;;;;;;;14.95;100.00;62397.94;5107294;28;20227;-75
2022/07/14 01:20:01;;;;;;;3.10;2.13;;;;;;;14.89;100.00;62394.56;5099242;28;20187;-75
2022/07/14 01:22:29;;;;;;;3.83;2.10;;;;;;;14.73;100.00;62379.38;5107969;28;20198;-73
2022/07/14 01:24:57;;;;;;;3.30;2.77;;;;;;;14.86;100.00;62395.94;5113223;28;20641;-77
2022/07/14 01:27:25;;;;;;;4.83;2.97;;;;;;;14.70;100.00;62373.59;5106731;28;20229;-75
2022/07/14 01:29:57;;;;;;;5.33;3.47;;;;;;;13.87;100.00;62285.41;5114850;28;20202;-75
2022/07/14 01:32:24;;;;;;;11.67;4.60;;;;;;;14.31;100.00;62334.75;5112263;28;20203;-76
2022/07/14 01:34:52;;;;;;;7.73;4.97;;;;;;;14.49;100.00;62351.00;5113361;28;20274;-74
2022/07/14 01:37:20;;;;;;;10.17;5.30;;;;;;;14.32;100.00;62333.81;5096528;28;20211;-75
2022/07/14 01:39:49;;;;;;;9.83;5.00;;;;;;;13.58;100.00;62256.81;5092231;28;20279;-75
2022/07/14 01:42:16;;;;;;;9.67;4.97;;;;;;;13.71;100.00;62268.19;5094252;28;20204;-77
2022/07/14 01:44:43;;;;;;;12.17;6.97;;;;;;;13.65;100.00;62264.31;5103049;28;20191;-78
2022/07/14 01:47:11;;;;;;;17.40;8.60;;;;;;;13.78;100.00;62278.28;5107951;28;20223;-75
2022/07/14 01:49:40;;;;;;;14.80;6.37;;;;;;;13.56;100.00;62249.53;5102963;28;20207;-75
2022/07/14 01:52:07;;;;;;;14.70;7.00;;;;;;;13.57;100.00;62253.16;5092135;28;20214;-74
2022/07/14 01:54:35;;;;;;;9.77;6.20;;;;;;;13.62;100.00;62258.53;5091573;28;20200;-78
2022/07/14 01:57:06;;;;;;;11.27;6.23;;;;;;;13.14;100.00;62210.06;5105225;28;20195;-75
2022/07/14 01:59:33;;;;;;;9.73;5.70;;;;;;;13.63;100.00;62257.03;5091812;28;20196;-73
2022/07/14 02:02:01;;;;;;;14.30;6.93;;;;;;;13.22;100.00;62218.66;5097978;28;20199;-74
2022/07/14 02:04:28;;;;;;;17.47;8.03;;;;;;;13.39;100.00;62228.69;5090764;28;20324;-75
2022/07/14 02:06:57;;;;;;;14.63;7.87;;;;;;;13.41;100.00;62233.41;5108223;28;20245;-76
2022/07/14 02:12:10;;;;;;;26.47;9.33;;;;;;;13.21;100.00;62214.47;5111777;28;20566;-74
2022/07/14 02:12:12;;;;;;;23.00;10.93;;;;;;;13.28;100.00;62229.69;5109014;28;20643;-75
2022/07/14 02:14:41;;;;;;;24.37;11.23;;;;;;;13.08;100.00;62203.09;5082864;28;20257;-74
2022/07/14 02:17:09;;;;;;;27.43;11.93;;;;;;;13.22;100.00;62213.53;5107668;28;20748;-74
2022/07/14 02:19:36;;;;;;;34.57;15.90;;;;;;;13.44;100.00;62239.19;5091279;28;20284;-74
2022/07/14 02:22:06;;;;;;;55.27;24.53;;;;;;;13.33;100.00;62224.81;5104647;28;20223;-77
2022/07/14 02:24:33;;;;;;;33.07;14.67;;;;;;;13.29;100.00;62226.19;5093296;28;20199;-74
2022/07/14 02:27:02;;;;;;;29.60;11.97;;;;;;;13.22;100.00;62218.13;5111767;28;20202;-75
2022/07/14 02:29:32;;;;;;;37.67;17.97;;;;;;;13.16;100.00;62209.13;5108214;28;20673;-76
2022/07/14 02:32:01;;;;;;;20.07;11.07;;;;;;;13.11;100.00;62203.75;5097608;28;20222;-75
2022/07/14 02:34:28;;;;;;;21.17;10.53;;;;;;;13.14;100.00;62204.41;5099212;28;20673;-75
2022/07/14 02:36:55;;;;;;;31.67;14.40;;;;;;;13.21;100.00;62211.91;5093042;28;20207;-73
2022/07/14 02:39:22;;;;;;;28.93;14.37;;;;;;;13.21;100.00;62211.91;5091475;28;20654;-77
2022/07/14 02:41:49;;;;;;;24.97;11.47;;;;;;;13.11;100.00;62206.31;5098324;28;20195;-74
2022/07/14 02:44:16;;;;;;;30.00;15.07;;;;;;;13.11;100.00;62203.75;5111874;28;20197;-76
2022/07/14 02:46:46;;;;;;;28.23;12.80;;;;;;;13.24;100.00;62215.69;5103378;28;20195;-74
2022/07/14 02:49:13;;;;;;;15.80;7.40;;;;;;;13.36;100.00;62231.13;5097802;28;20288;-74
2022/07/14 02:51:40;;;;;;;21.70;8.80;;;;;;;13.41;100.00;62238.53;5091641;28;20196;-74
2022/07/14 02:54:07;;;;;;;23.17;9.47;;;;;;;13.53;100.00;62251.41;5102776;28;20195;-77
2022/07/14 02:56:35;;;;;;;16.63;9.50;;;;;;;13.44;100.00;62239.72;5106197;28;20195;-77
2022/07/14 02:59:07;;;;;;;22.23;9.50;;;;;;;13.43;100.00;62235.56;5102815;28;20204;-77
2022/07/14 03:01:34;;;;;;;11.90;5.87;;;;;;;13.49;100.00;62239.44;5104368;28;20210;-75
2022/07/14 03:04:02;;;;;;;17.63;5.30;;;;;;;13.04;100.00;62193.69;5091503;28;20195;-73
2022/07/14 03:06:29;;;;;;;18.13;6.70;;;;;;;13.60;100.00;62253.84;5091284;28;20211;-75
2022/07/14 03:08:56;;;;;;;18.07;7.17;;;;;;;13.22;100.00;62218.13;5090778;28;20314;-74
2022/07/14 03:11:25;;;;;;;19.90;6.23;;;;;;;13.62;100.00;62261.09;5103627;28;20199;-77
2022/07/14 03:13:52;;;;;;;17.97;6.83;;;;;;;13.61;100.00;62260.00;5091655;28;20244;-74
2022/07/14 03:16:19;;;;;;;21.10;7.47;;;;;;;13.55;100.00;62245.88;5098933;28;20222;-75
2022/07/14 03:18:46;;;;;;;28.00;8.37;;;;;;;13.61;100.00;62254.91;5113597;28;20231;-75
2022/07/14 03:21:15;;;;;;;23.63;6.47;;;;;;;13.61;100.00;62260.00;5107926;28;20195;-73
2022/07/14 03:23:41;;;;;;;27.90;8.27;;;;;;;13.52;100.00;62245.22;5096311;28;20199;-73
2022/07/14 03:26:09;;;;;;;22.10;6.67;;;;;;;13.48;100.00;62241.47;5095850;28;20222;-75
2022/07/14 03:28:38;;;;;;;13.30;5.83;;;;;;;13.67;100.00;62263.91;5094543;28;20237;-77
2022/07/14 03:31:06;;;;;;;12.40;5.70;;;;;;;13.63;100.00;62256.50;5094507;28;20195;-77
2022/07/14 03:33:33;;;;;;;14.80;4.77;;;;;;;13.44;100.00;62239.19;5096702;28;20208;-73
2022/07/14 03:36:00;;;;;;;8.67;3.97;;;;;;;13.39;100.00;62234.34;5105399;28;20199;-75
2022/07/14 03:38:31;;;;;;;11.90;4.00;;;;;;;13.57;100.00;62250.59;5108221;28;20243;-76
2022/07/14 03:40:59;;;;;;;9.33;4.20;;;;;;;13.63;100.00;62262.16;5106031;28;20353;-75
2022/07/14 03:43:26;;;;;;;9.53;4.20;;;;;;;13.72;100.00;62266.72;5108888;28;20195;-75
2022/07/14 03:45:55;;;;;;;14.43;4.20;;;;;;;13.68;100.00;62267.00;5114502;28;20194;-75
2022/07/14 03:48:24;;;;;;;11.17;4.10;;;;;;;13.48;100.00;62243.50;5114151;28;20707;-74
2022/07/14 03:50:51;;;;;;;12.93;4.43;;;;;;;14.03;100.00;62302.59;5108227;28;20206;-74
2022/07/14 03:53:19;;;;;;;13.70;4.30;;;;;;;13.99;100.00;62288.06;5093966;28;20261;-77
2022/07/14 03:55:48;;;;;;;12.53;4.03;;;;;;;13.95;100.00;62293.44;5094121;28;20198;-76
2022/07/14 03:58:16;;;;;;;12.23;4.20;;;;;;;13.98;100.00;62294.66;5107414;28;20225;-77
2022/07/14 04:00:43;;;;;;;14.77;4.63;;;;;;;14.18;100.00;62321.28;5100673;28;20323;-75
2022/07/14 04:03:11;;;;;;;9.03;4.17;;;;;;;14.12;100.00;62311.75;5113831;28;20202;-75
2022/07/14 04:05:39;;;;;;;5.17;3.67;;;;;;;14.30;100.00;62329.09;5094471;28;20234;-76
2022/07/14 04:08:06;;;;;;;16.87;4.50;;;;;;;14.27;100.00;62325.84;5102030;28;20223;-76
2022/07/14 04:10:34;;;;;;;12.90;4.30;;;;;;;14.42;100.00;62343.47;5109361;28;20199;-75
2022/07/14 04:13:06;;;;;;;12.60;4.20;;;;;;;14.17;100.00;62317.66;5093492;28;20253;-76
2022/07/14 04:15:34;;;;;;;14.63;4.10;;;;;;;14.31;100.00;62334.75;5112739;28;20250;-76
2022/07/14 04:18:01;;;;;;;10.03;4.17;;;;;;;14.42;100.00;62340.91;5099982;28;20245;-76
2022/07/14 04:20:28;;;;;;;14.77;4.57;;;;;;;13.95;100.00;62288.88;5103264;28;20264;-75
2022/07/14 04:22:55;;;;;;;8.03;3.77;;;;;;;14.58;100.00;62358.66;5106798;28;20243;-76
2022/07/14 04:25:23;;;;;;;10.60;4.80;;;;;;;14.93;100.00;62396.28;5085910;28;20198;-76
2022/07/14 04:27:51;;;;;;;17.17;4.53;;;;;;;14.84;100.00;62386.09;5098677;28;20207;-76
2022/07/14 04:30:20;;;;;;;10.63;4.47;;;;;;;14.74;100.00;62380.44;5103141;28;20310;-75
2022/07/14 04:32:47;;;;;;;12.97;4.70;;;;;;;14.99;100.00;62402.22;5106876;28;20518;-75
2022/07/14 04:35:16;;;;;;;21.87;5.40;;;;;;;15.27;100.00;62429.25;5093604;28;20199;-78
2022/07/14 04:37:44;;;;;;;23.00;6.13;;;;;;;15.15;100.00;62424.59;5100462;28;20225;-74
2022/07/14 04:40:12;;;;;;;32.03;7.57;;;;;;;15.41;100.00;62446.88;5112669;28;20252;-74
2022/07/14 04:42:40;;;;;;;28.97;7.63;;;;;;;15.59;100.00;62469.41;5093172;28;20658;-73
2022/07/14 04:45:08;;;;;;;30.80;7.57;;;;;;;15.78;100.00;62487.28;5092730;28;20214;-77
2022/07/14 04:47:37;;;;;;;17.27;6.13;;;;;;;15.69;100.00;62480.16;5112250;28;20641;-74
2022/07/14 04:52:50;;;;;;;22.30;7.07;;;;;;;16.33;100.00;62551.13;5101241;28;20202;-75
2022/07/14 04:55:18;;;;;;;22.73;6.73;;;;;;;16.51;100.00;62570.00;5105221;28;20194;-78
2022/07/14 04:57:46;;;;;;;19.73;7.23;;;;;;;16.66;100.00;62588.75;5111569;28;20198;-74
2022/07/14 05:00:14;;;;;;;17.40;6.70;;;;;;;16.92;100.00;62611.63;5111346;28;20228;-75
2022/07/14 05:02:43;;;;;;;19.27;8.13;;;;;;;17.11;100.00;62629.50;5102829;28;20195;-76
2022/07/14 05:05:11;;;;;;;17.43;6.10;;;;;;;17.16;100.00;62640.06;5105627;28;20225;-76
2022/07/14 05:07:37;;;;;;;23.33;6.67;;;;;;;17.35;100.00;62660.00;5104193;28;20195;-75
2022/07/14 05:10:07;;;;;;;26.07;6.77;;;;;;;17.71;100.00;62699.41;5094552;28;20635;-77
2022/07/14 05:12:34;;;;;;;21.47;5.77;;;;;;;17.88;100.00;62708.94;5103481;28;20672;-77
2022/07/14 05:15:01;;;;;;;15.60;6.47;;;;;;;17.46;100.00;62667.25;5107666;28;20268;-76
2022/07/14 05:17:29;;;;;;;20.27;7.20;;;;;;;18.03;100.00;62730.28;5111734;28;20280;-77
2022/07/14 05:19:57;;;;;;;25.17;6.57;;;;;;;18.38;100.00;62766.00;5111774;28;20194;-76
2022/07/14 05:22:25;;;;;;;20.53;6.37;;;;;;;17.88;100.00;62709.47;5111900;28;20248;-78
2022/07/14 05:24:52;;;;;;;18.63;6.00;;;;;;;18.39;100.00;62766.56;5108144;28;20557;-78
2022/07/14 05:27:19;;;;;;;15.27;6.23;;;;;;;17.81;100.00;62706.53;5107162;28;20277;-78
2022/07/14 05:29:45;;;;;;;18.63;5.90;;;;;;;18.78;100.00;62806.09;5096468;28;20685;-77
2022/07/14 05:32:13;;;;;;;23.07;7.20;;;;;;;18.86;100.00;62812.13;5096747;28;20200;-80
2022/07/14 05:34:44;;;;;;;18.03;7.97;;;;;;;19.18;100.00;62857.03;5105184;28;20264;-79
2022/07/14 05:37:13;;;;;;;16.80;7.70;;;;;;;19.16;100.00;62849.69;5098102;28;20242;-73
2022/07/14 05:39:40;;;;;;;21.33;10.77;;;;;;;19.68;100.00;62904.84;5101025;28;20202;-74
2022/07/14 05:42:08;;;;;;;22.23;10.70;;;;;;;19.73;100.00;62910.22;5098566;28;20218;-73
2022/07/14 05:44:36;;;;;;;27.87;11.43;;;;;;;19.44;100.00;62881.50;5104609;28;20196;-74
2022/07/14 05:47:04;;;;;;;32.33;12.13;;;;;;;19.87;100.00;62930.53;5105694;28;20664;-75
2022/07/14 05:49:32;;;;;;;34.33;13.80;;;;;;;19.90;100.00;62931.19;5100252;28;20222;-77
2022/07/14 05:52:01;;;;;;;24.10;13.23;;;;;;;20.01;100.00;62941.03;5110026;28;20230;-79
2022/07/14 05:54:31;;;;;;;29.67;13.60;;;;;;;20.14;100.00;62954.56;5100005;28;20243;-78
2022/07/14 05:56:58;;;;;;;32.00;11.83;;;;;;;20.00;100.00;62944.59;5091205;28;20192;-77
2022/07/14 05:59:26;;;;;;;30.17;11.60;;;;;;;20.37;100.00;62984.63;5097205;28;20253;-77
2022/07/14 06:01:53;;;;;;;25.50;8.90;;;;;;;20.56;100.00;63000.00;5111852;28;20281;-75
2022/07/14 06:04:19;;;;;;;25.20;9.10;;;;;;;20.53;100.00;63003.97;5111897;28;20668;-75
2022/07/14 06:06:47;;;;;;;14.50;7.57;;;;;;;20.39;100.00;62981.59;5094641;28;20199;-77
2022/07/14 06:09:17;;;;;;;26.50;7.33;;;;;;;20.22;100.00;62963.22;5073474;28;20223;-76
2022/07/14 06:11:45;;;;;;;35.50;8.87;;;;;;;20.31;100.00;62972.94;5115490;28;20195;-75
2022/07/14 06:14:13;;;;;;;29.83;9.80;;;;;;;20.32;100.00;62979.22;5112851;28;20217;-77
2022/07/14 06:16:41;;;;;;;23.77;8.83;;;;;;;20.40;100.00;62982.69;5109184;28;20191;-77
2022/07/14 06:19:08;;;;;;;26.60;9.20;;;;;;;20.58;100.00;63011.97;5113093;28;20243;-76
2022/07/14 06:21:36;;;;;;;32.87;8.57;;;;;;;20.84;100.00;63030.28;5104656;28;20206;-77
2022/07/14 06:24:03;;;;;;;26.73;8.07;;;;;;;21.14;100.00;63061.66;5093516;28;20187;-77
2022/07/14 06:26:30;;;;;;;31.43;7.00;;;;;;;21.57;100.00;63113.41;5091808;28;20199;-77
2022/07/14 06:28:59;;;;;;;17.73;6.73;;;;;;;21.43;100.00;63093.59;5077340;28;20219;-77
2022/07/14 06:31:26;;;;;;;18.07;6.30;;;;;;;21.64;100.00;63120.97;5099650;28;20207;-78
2022/07/14 06:33:55;;;;;;;27.67;8.30;;;;;;;21.52;100.00;63105.41;5109151;28;20214;-78
2022/07/14 06:36:22;;;;;;;17.87;7.20;;;;;;;21.44;100.00;63094.13;5092535;28;20248;-76
2022/07/14 06:38:49;;;;;;;15.57;6.17;;;;;;;21.99;100.00;63153.72;5091057;28;20577;-77
2022/07/14 06:41:16;;;;;;;16.40;6.43;;;;;;;22.29;100.00;63191.41;5090583;28;20207;-76
2022/07/14 06:43:43;;;;;;;18.43;6.93;;;;;;;22.42;100.00;63202.88;5090868;28;20202;-78
2022/07/14 06:46:16;;;;;;;31.33;6.70;;;;;;;22.47;100.00;63208.31;5098010;28;20190;-76
2022/07/14 06:48:45;;;;;;;21.77;6.47;;;;;;;22.37;100.00;63197.47;5109944;28;20586;-78
2022/07/14 06:51:12;;;;;;;18.37;5.57;;;;;;;23.20;100.00;63283.78;5094449;28;20195;-77
2022/07/14 06:53:39;;;;;;;17.37;6.13;;;;;;;23.08;100.00;63270.75;5095599;28;20200;-77
2022/07/14 06:56:06;;;;;;;18.87;6.20;;;;;;;23.14;100.00;63277.78;5094952;28;20198;-77
2022/07/14 06:58:37;;;;;;;10.83;5.87;;;;;;;23.26;100.00;63290.28;5107002;28;20187;-76
2022/07/14 07:01:06;;;;;;;19.93;6.87;;;;;;;23.99;100.00;63369.44;5109289;28;20252;-76
2022/07/14 07:03:34;;;;;;;18.77;6.43;;;;;;;23.82;100.00;63350.47;5103159;28;20255;-76
2022/07/14 07:08:46;;;;;;;22.13;6.70;;;;;;;23.96;100.00;63366.22;5114989;28;20229;-75
2022/07/14 07:11:15;;;;;;;15.53;6.17;;;;;;;23.90;100.00;63359.69;5114373;28;20196;-78
2022/07/14 07:13:42;;;;;;;17.70;5.87;;;;;;;23.93;100.00;63362.41;5114361;28;20195;-74
2022/07/14 07:16:12;;;;;;;20.33;5.87;;;;;;;23.79;100.00;63347.75;5101035;28;20689;-75
2022/07/14 07:18:40;;;;;;;21.33;6.07;;;;;;;23.58;100.00;63322.38;5113446;28;20716;-75
2022/07/14 07:21:12;;;;;;;13.17;5.13;;;;;;;23.70;100.00;63343.22;5114417;28;20199;-77
2022/07/14 07:23:44;;;;;;;23.73;5.83;;;;;;;24.00;100.00;63370.00;5114196;28;20202;-77
2022/07/14 07:26:12;;;;;;;15.23;5.17;;;;;;;24.28;100.00;63400.94;5104882;28;20191;-76
2022/07/14 07:28:39;;;;;;;17.10;5.40;;;;;;;24.87;100.00;63463.94;5094994;28;20205;-75
2022/07/14 07:31:06;;;;;;;17.10;5.07;;;;;;;24.93;100.00;63467.84;5107596;28;20203;-74
2022/07/14 07:33:34;;;;;;;13.87;4.77;;;;;;;25.17;100.00;63496.50;5114121;28;20655;-77
2022/07/14 07:36:02;;;;;;;15.63;5.20;;;;;;;25.36;100.00;63516.56;5114520;28;20191;-77
2022/07/14 07:38:30;;;;;;;11.03;4.43;;;;;;;25.45;100.00;63529.00;5101300;28;20575;-78
2022/07/14 07:41:00;;;;;;;18.10;5.30;;;;;;;25.34;100.00;63520.16;5113525;28;20191;-76
2022/07/14 07:43:28;;;;;;;12.80;3.93;;;;;;;25.63;100.00;63541.28;5101456;28;20682;-76
2022/07/14 07:45:55;;;;;;;10.27;4.20;;;;;;;25.71;100.00;63557.25;5104498;28;20210;-74
2022/07/14 07:48:22;;;;;;;6.60;3.57;;;;;;;25.79;100.00;63563.31;5114438;28;20286;-75
2022/07/14 07:50:50;;;;;;;13.53;3.90;;;;;;;25.55;100.00;63537.78;5113595;28;20680;-75
2022/07/14 07:53:21;;;;;;;10.23;4.37;;;;;;;25.42;100.00;63526.28;5114460;28;20202;-78
2022/07/14 07:55:49;;;;;;;10.20;3.70;;;;;;;24.81;100.00;63457.41;5113712;28;20285;-76
2022/07/14 07:58:17;;;;;;;5.67;2.67;;;;;;;25.11;100.00;63484.78;5113496;28;20207;-77
2022/07/14 08:00:46;;;;;;;7.97;3.00;;;;;;;24.41;100.00;63414.50;5100699;28;20195;-75
2022/07/14 08:03:13;;;;;;;8.10;2.90;;;;;;;25.23;100.00;63507.69;5112198;28;20213;-75
2022/07/14 08:05:42;;;;;;;9.30;3.00;;;;;;;25.72;100.00;63555.72;5094289;28;20204;-77
2022/07/14 08:08:11;;;;;;;9.93;2.50;;;;;;;25.90;100.00;63575.25;5094241;28;20201;-79
2022/07/14 08:10:40;;;;;;;11.33;2.83;;;;;;;26.04;100.00;63589.94;5101669;28;20274;-78
2022/07/14 08:13:08;;;;;;;7.63;2.83;;;;;;;26.38;100.00;63624.84;5097980;28;20293;-73
2022/07/14 08:15:37;;;;;;;12.00;2.80;;;;;;;26.80;100.00;63672.06;5100227;28;20221;-75
2022/07/14 08:18:05;;;;;;;5.00;2.80;;;;;;;27.11;100.00;63708.94;5096927;28;20236;-75
2022/07/14 08:20:34;;;;;;;5.93;2.37;;;;;;;27.13;100.00;63707.94;5094107;28;20203;-74
2022/07/14 08:23:02;;;;;;;10.63;2.30;;;;;;;27.22;100.00;63718.31;5093225;28;20298;-76
2022/07/14 08:25:29;;;;;;;5.10;2.90;;;;;;;26.81;100.00;63676.31;5104269;28;20699;-76
2022/07/14 08:27:58;;;;;;;8.43;2.50;;;;;;;26.94;100.00;63687.84;5095741;28;20191;-75
2022/07/14 08:30:25;;;;;;;9.13;2.70;;;;;;;26.68;100.00;63656.94;5104673;28;20753;-75
2022/07/14 08:32:53;;;;;;;4.97;2.43;;;;;;;26.71;100.00;63662.81;5112333;28;20197;-76
2022/07/14 08:35:23;;;;;;;3.23;2.10;;;;;;;27.06;100.00;63700.91;5112727;28;20222;-76
2022/07/14 08:37:52;;;;;;;4.63;2.27;;;;;;;26.80;100.00;63672.06;5111446;28;20553;-77
2022/07/14 08:40:21;;;;;;;7.80;2.20;;;;;;;26.88;100.00;63681.31;5112878;28;20198;-76
2022/07/14 08:42:51;;;;;;;5.70;2.03;;;;;;;26.99;100.00;63693.28;5112925;28;20199;-77
2022/07/14 08:45:23;;;;;;;6.23;2.17;;;;;;;27.21;95.55;63717.19;5112239;28;20690;-75
2022/07/14 08:47:52;;;;;;;5.83;2.33;;;;;;;27.11;100.00;63703.72;5100026;28;20195;-79
2022/07/14 08:50:21;;;;;;;7.63;2.27;;;;;;;26.95;100.00;63688.91;5112727;28;20233;-76
2022/07/14 08:52:50;;;;;;;13.40;2.20;;;;;;;26.80;99.17;63672.63;5112892;28;20190;-75
2022/07/14 08:55:19;;;;;;;6.40;2.30;;;;;;;26.60;98.69;63650.84;5112282;28;20572;-77
2022/07/14 08:57:46;;;;;;;4.00;2.27;;;;;;;27.00;97.95;63693.81;5112739;28;20226;-75
2022/07/14 09:00:15;;;;;;;11.63;2.23;;;;;;;27.32;100.00;63729.19;5111985;28;20559;-77
2022/07/14 09:02:49;;;;;;;8.43;2.10;;;;;;;27.77;95.28;63772.38;5112539;28;20202;-76
2022/07/14 09:05:17;;;;;;;8.30;2.40;;;;;;;28.19;92.38;63818.13;5111821;28;20208;-77
2022/07/14 09:07:44;;;;;;;4.00;2.60;;;;;;;28.28;88.96;63835.25;5112288;28;20680;-76
2022/07/14 09:10:13;;;;;;;8.70;2.37;;;;;;;27.97;83.90;63798.88;5112090;28;20238;-75
2022/07/14 09:12:42;;;;;;;7.65;1.90;;;;;;;27.47;87.69;63745.50;5112167;28;20422;-78
2022/07/14 09:18:00;;;;;;;6.00;1.87;;;;;;;28.28;79.24;63832.63;5111957;28;20283;-78
2022/07/14 09:20:28;;;;;;;3.27;2.00;;;;;;;28.50;92.39;63853.41;5112986;28;20262;-76
2022/07/14 09:22:57;;;;;;;6.37;2.63;;;;;;;28.91;82.72;63898.09;5111470;28;20196;-78
2022/07/14 09:25:26;;;;;;;7.33;2.23;;;;;;;29.16;81.22;63925.88;5112149;28;20195;-78
2022/07/14 09:27:54;;;;;;;2.40;1.70;;;;;;;28.95;76.03;63905.63;5111233;28;20199;-76
2022/07/14 09:30:26;;;;;;;6.17;2.23;;;;;;;29.41;75.99;63954.66;5111670;28;20223;-75
2022/07/14 09:32:56;;;;;;;3.57;2.00;;;;;;;29.50;74.25;63959.22;5111330;28;20270;-76
2022/07/14 09:35:28;;;;;;;4.17;1.70;;;;;;;29.74;71.46;63990.66;5112200;28;20196;-78
2022/07/14 09:37:56;;;;;;;14.13;1.93;;;;;;;29.94;71.28;64012.47;5110984;28;20567;-75
2022/07/14 09:40:27;;;;;;;7.57;2.03;;;;;;;29.16;69.68;63927.97;5110879;28;20285;-75
2022/07/14 09:42:58;;;;;;;6.93;1.97;;;;;;;29.36;72.21;63949.22;5108215;28;20200;-76
2022/07/14 09:45:28;;;;;;;4.60;1.87;;;;;;;28.98;75.21;63908.88;5110223;28;20240;-77
2022/07/14 09:48:03;;;;;;;6.47;2.23;;;;;;;28.41;77.00;63844.16;5110636;28;20610;-75
2022/07/14 09:50:41;;;;;;;7.90;2.00;;;;;;;28.83;75.42;63892.53;5110882;28;20426;-76
2022/07/14 09:53:19;;;;;;;5.73;2.00;;;;;;;29.11;70.52;63923.06;5111133;28;20568;-76
2022/07/14 09:56:03;;;;;;;4.07;1.70;;;;;;;28.46;72.24;63851.66;5111572;28;20201;-75
2022/07/14 09:58:32;;;;;;;5.13;1.77;;;;;;;28.75;73.69;63883.84;5092218;28;20199;-74
2022/07/14 10:01:01;;;;;;;3.63;1.87;;;;;;;28.42;75.99;63848.41;5108249;28;20195;-75
2022/07/14 10:03:29;;;;;;;8.90;1.87;;;;;;;28.77;74.30;63883.38;5103884;28;20199;-75
2022/07/14 10:06:00;;;;;;;6.33;1.90;;;;;;;28.62;76.50;63869.13;5091721;28;20207;-76
2022/07/14 10:08:29;;;;;;;13.50;2.70;;;;;;;28.86;75.95;63895.81;5091727;28;20210;-75
2022/07/14 10:10:58;;;;;;;13.90;2.83;;;;;;;29.14;78.58;63926.34;5104364;28;20331;-76
2022/07/14 10:13:26;;;;;;;7.63;1.70;;;;;;;29.32;70.89;63948.03;5090336;28;20228;-76
2022/07/14 10:15:54;;;;;;;5.97;2.17;;;;;;;29.46;69.46;63960.13;5090567;28;20217;-75
2022/07/14 10:18:24;;;;;;;5.77;2.27;;;;;;;29.32;71.57;63944.88;5093129;28;20256;-75
2022/07/14 10:20:53;;;;;;;9.30;2.57;;;;;;;27.70;70.69;63769.44;5100421;28;20319;-75
2022/07/14 10:23:23;;;;;;;4.33;2.00;;;;;;;28.33;79.91;63835.44;5110909;28;20660;-75
2022/07/14 10:25:54;;;;;;;6.00;1.70;;;;;;;28.82;77.16;63891.44;5110851;28;20190;-75
2022/07/14 10:28:22;;;;;;;9.77;2.03;;;;;;;28.85;77.43;63892.09;5111089;28;20222;-77
2022/07/14 10:31:02;;;;;;;7.37;2.17;;;;;;;29.98;72.57;64017.38;5110782;28;20252;-74
2022/07/14 10:33:40;;;;;;;2.83;1.83;;;;;;;30.55;67.95;64079.00;5092919;28;20256;-76
2022/07/14 10:36:18;;;;;;;6.47;1.87;;;;;;;30.19;63.68;64039.72;5090957;28;20206;-75
2022/07/14 10:39:15;;;;;;;6.27;3.10;;;;;;;30.86;61.69;64111.75;5091275;28;20195;-77
2022/07/14 10:41:52;;;;;;;10.13;2.20;;;;;;;30.62;60.33;64086.09;5085931;28;20201;-77
2022/07/14 10:44:22;;;;;;;6.47;3.07;;;;;;;30.53;60.39;64073.66;5091386;28;20206;-76
2022/07/14 10:46:51;;;;;;;11.37;3.30;;;;;;;30.39;60.71;64061.56;5109642;28;20258;-75
2022/07/14 10:49:19;;;;;;;8.30;3.47;;;;;;;30.57;60.12;64081.19;5095548;28;20746;-74
2022/07/14 10:51:49;;;;;;;9.03;3.97;;;;;;;30.90;59.88;64116.69;5096011;28;20236;-75
2022/07/14 10:54:25;;;;;;;8.90;3.60;;;;;;;31.24;60.99;64153.22;5095882;28;20604;-77
2022/07/14 10:57:11;;;;;;;7.53;3.57;;;;;;;31.38;59.80;64169.09;5106940;28;20646;-77
2022/07/14 10:59:41;;;;;;;8.47;2.60;;;;;;;31.54;57.76;64183.91;5088966;28;20230;-75
2022/07/14 11:02:36;;;;;;;4.63;2.33;;;;;;;31.18;55.07;64146.69;5090332;28;20298;-75
2022/07/14 11:05:17;;;;;;;7.80;2.07;;;;;;;31.48;57.02;64179.47;5093742;28;20219;-75
2022/07/14 11:07:48;;;;;;;6.97;2.37;;;;;;;31.45;57.18;64176.19;5109119;28;20200;-76
2022/07/14 11:11:09;;;;;;;1.83;1.60;;;;;;;30.46;55.45;64069.22;5092102;28;20234;-75
2022/07/14 11:14:13;;;;;;;7.53;1.80;;;;;;;30.14;57.77;64031.66;5090636;28;20218;-75
2022/07/14 11:16:59;;;;;;;4.67;1.60;;;;;;;30.67;56.92;64092.09;5103508;28;20263;-76
2022/07/14 11:19:33;;;;;;;1.80;1.50;;;;;;;30.80;57.86;64108.38;5091017;28;20226;-75
2022/07/14 11:22:18;;;;;;;4.77;1.63;;;;;;;31.21;52.65;64149.97;5099084;28;20192;-75
2022/07/14 11:24:49;;;;;;;6.40;1.50;;;;;;;30.36;52.06;64058.31;5108744;28;20665;-76
2022/07/14 11:27:38;;;;;;;4.23;1.47;;;;;;;29.91;52.15;64009.19;5102441;28;20571;-74
2022/07/14 11:30:25;;;;;;;7.47;1.50;;;;;;;31.03;54.09;64125.06;5103423;28;20228;-74
2022/07/14 11:33:04;;;;;;;4.30;1.50;;;;;;;31.02;53.29;64126.59;5090111;28;20198;-75
2022/07/14 11:38:37;;;;;;;4.17;1.33;;;;;;;30.96;52.03;64125.88;5106192;28;20255;-74
2022/07/14 11:41:08;;;;;;;3.87;1.50;;;;;;;31.11;50.07;64139.06;5094268;28;20610;-76
2022/07/14 11:43:50;;;;;;;2.37;1.50;;;;;;;31.36;51.26;64171.59;5094130;28;20635;-76